Terminal Aerodrome Forecast
Issued by NWS

Home | Current Version | Previous Version | Text Only | Print | Product List | Glossary On
Versions: 1 2 3 4 5 6 7 8 9 10 11 12 13 14 15 16 17 18 19 20 21
000
FTUS41 KBGM 261100
TAFRME
TAF
KRME 261126Z 2612/2712 36005KT P6SM BKN050 BKN250
     FM261900 01008KT 3SM -SN OVC022
      TEMPO 2620/2624 1SM -SN BR OVC018
     FM270200 31009KT 4SM -SHSN OVC025=

USA.gov is the U.S. government's official web portal to all federal, state and local government web resources and services.